الصفحة الرئيسية
METAR-TAF:

METAR-TAF

مطار :

Grand Junction, كولورادو, الولايات المتحدة

دائرة عرض: 39-08-02N, خط طول: 108-32-19W, ارتفاع: 1481 متر

مراقبة الطقس الحالي

تاريخ ووقت الإصدار 15 دقيقة قبل الساعة 22:53UTC
ريح 12 عقدة من الغرب/الشمال الغربي
درجة الحرارة 29°درجة مئوية
الرطوبة 12%
ضغط 1019 hPa
الرؤية: 16.1 كم
سماء صافية

METAR: KGJT 222253Z 30012KT 10SM CLR 29/M03 A3008 RMK AO2 SLP126 T02941028

زمن: 17:08 (23:08 UTC)

توقعات

تاريخ ووقت الإصدار 5ساعات و 37 دقيقة قبل الساعة 17:31UTC
التوقعات صالحة من22 الساعة 18 UTC إلى 23 الساعة 18 UTC
ريح 8 عقدة من الجنوب الشرقي
الرؤية: 10 كم
سماء صافية
من 22 الساعة 2100 UTC
ريح 7 عقدة من الغرب/الشمال الغربي
الرؤية: 10 كم
سماء صافية
من 23 الساعة 0300 UTC
ريح 5 عقدة من الشرق
الرؤية: 10 كم
غيوم قليلة على ارتفاع 25000 قدم
من 23 الساعة 0900 UTC
ريح 11 عقدة من الشرق/الجنوب الشرقي
الرؤية: 10 كم
غيوم قليلة على ارتفاع 25000 قدم

TAF: KGJT 221731Z 2218/2318 13008KT P6SM SKC FM222100 29007KT P6SM SKC FM230300 08005KT P6SM FEW250 FM230900 11011KT P6SM FEW250

أرصاد الطقس والتوقعات من أكثر من 4000 مطار (تقارير الطقس للمطار METAR والتنبؤ بالطقس بالمطارTAF).

المحطات المتاحة هي النقط الصفراء والحمراء على الخريطة.

حرك المؤشر فوق النقطة لمعرفة اسم المحطة.

ثم انقر لمعرفة أرصاد وتوقعات الطقس.

لتغيير الخارطة: اضغط على الأزرار الخضراء مع رمز الصليب الأسود للتكبير. على الزر الأخضر مع شرطة للتصغير، أو على الأسهم الخضراء للخرائط المجاورة.


METAR-TAF: